createdAt,value
2018-05-16T04:01:45.466Z,95323
2018-05-16T04:04:18.275Z,95317
2018-05-16T04:06:48.074Z,95332
2018-05-16T04:09:17.133Z,95319
2018-05-16T04:11:46.152Z,95325
2018-05-16T04:14:15.216Z,95327
2018-05-16T04:16:44.246Z,95328
2018-05-16T04:19:13.302Z,95327
2018-05-16T04:21:42.347Z,95322
2018-05-16T04:24:12.171Z,95336
2018-05-16T04:26:41.202Z,95320
2018-05-16T04:29:10.239Z,95321
2018-05-16T04:31:40.066Z,95328
2018-05-16T04:34:09.872Z,95327
2018-05-16T04:36:38.891Z,95317
2018-05-16T04:39:07.938Z,95316
2018-05-16T04:41:36.956Z,95321
2018-05-16T04:44:06.020Z,95326
2018-05-16T04:46:35.028Z,95323
2018-05-16T04:49:04.802Z,95323
2018-05-16T04:51:34.187Z,95324
2018-05-16T04:54:03.294Z,95319
2018-05-16T04:56:32.299Z,95326
2018-05-16T04:59:01.312Z,95323
2018-05-16T05:01:30.355Z,95325
2018-05-16T05:03:59.369Z,95325
2018-05-16T05:06:28.416Z,95328
2018-05-16T05:08:58.209Z,95320
2018-05-16T05:11:27.228Z,95322
2018-05-16T05:13:56.295Z,95321
2018-05-16T05:16:26.071Z,95318
2018-05-16T05:18:55.095Z,95319
2018-05-16T05:21:24.140Z,95320
2018-05-16T05:23:53.151Z,95314
2018-05-16T05:26:25.471Z,95310
2018-05-16T05:28:55.253Z,95315
2018-05-16T05:31:24.273Z,95320
2018-05-16T05:33:54.080Z,95321
2018-05-16T05:36:23.136Z,95317
2018-05-16T05:38:52.156Z,95318
2018-05-16T05:41:21.215Z,95316
2018-05-16T05:43:50.239Z,95318
2018-05-16T05:46:19.261Z,95323
2018-05-16T05:48:48.307Z,95319
2018-05-16T05:51:17.314Z,95326
2018-05-16T05:53:46.333Z,95315
2018-05-16T05:56:16.140Z,95318
2018-05-16T05:58:45.168Z,95322
2018-05-16T06:01:14.211Z,95320
2018-05-16T06:03:44.006Z,95315
2018-05-16T06:06:13.070Z,95307
2018-05-16T06:08:42.091Z,95311
2018-05-16T06:11:11.107Z,95322
2018-05-16T06:13:40.167Z,95310
2018-05-16T06:16:09.178Z,95324
2018-05-16T06:18:38.197Z,95323
2018-05-16T06:21:07.275Z,95322
2018-05-16T06:23:36.284Z,95313
2018-05-16T06:26:06.064Z,95311
2018-05-16T06:28:35.147Z,95311
2018-05-16T06:31:04.167Z,95309
2018-05-16T06:33:33.180Z,95305
2018-05-16T06:36:02.223Z,95312
2018-05-16T06:38:31.264Z,95315
2018-05-16T06:41:01.031Z,95309
2018-05-16T06:43:30.071Z,95312
2018-05-16T06:45:59.995Z,95308
2018-05-16T06:48:28.859Z,95301
2018-05-16T06:50:58.687Z,95296
2018-05-16T06:53:27.704Z,95301
2018-05-16T06:55:56.716Z,95297
2018-05-16T06:58:25.752Z,95302
2018-05-16T07:00:54.758Z,95306
2018-05-16T07:03:24.555Z,95300
2018-05-16T07:05:53.606Z,95294
2018-05-16T07:08:22.642Z,95307
2018-05-16T07:10:51.671Z,95309
2018-05-16T07:13:20.686Z,95308
2018-05-16T07:15:49.724Z,95310
2018-05-16T07:18:18.727Z,95313
2018-05-16T07:20:47.779Z,95317
2018-05-16T07:23:16.800Z,95320
2018-05-16T07:25:45.876Z,95321
2018-05-16T07:28:14.887Z,95320
2018-05-16T07:30:43.909Z,95320
2018-05-16T07:33:12.948Z,95329
2018-05-16T07:35:41.972Z,95323
2018-05-16T07:38:11.019Z,95327
2018-05-16T07:40:40.039Z,95335
2018-05-16T07:43:09.087Z,95333
2018-05-16T07:45:38.096Z,95335
2018-05-16T07:48:07.108Z,95236
2018-05-16T07:50:36.153Z,95332
2018-05-16T07:53:05.162Z,95328
2018-05-16T07:55:34.167Z,95333
2018-05-16T07:58:03.215Z,95339
2018-05-16T15:02:19.591Z,95469
2018-05-16T15:04:49.173Z,95481
2018-05-16T15:07:19.794Z,95479
2018-05-16T15:09:49.026Z,95489
2018-05-16T15:12:18.106Z,95494
2018-05-16T15:14:47.803Z,95493
2018-05-16T15:17:17.122Z,95498
2018-05-16T15:19:46.934Z,95517
2018-05-16T15:22:15.983Z,95512
2018-05-16T15:24:45.051Z,95513
2018-05-16T15:27:14.959Z,95525
2018-05-16T15:29:44.084Z,95519
2018-05-16T15:32:22.711Z,95530
2018-05-16T15:34:51.739Z,95526
2018-05-16T15:37:21.674Z,95548
2018-05-16T15:39:50.886Z,95536
2018-05-16T15:42:20.040Z,95546
2018-05-16T15:44:49.168Z,95540
2018-05-16T15:47:18.354Z,95550
2018-05-16T15:49:47.455Z,95538
2018-05-16T15:52:16.455Z,95539
2018-05-16T15:54:46.574Z,95551
2018-05-16T15:57:15.599Z,95555
2018-05-16T15:59:44.619Z,95550
2018-05-16T16:02:13.675Z,95540
2018-05-16T16:04:42.709Z,95536
2018-05-16T16:07:11.829Z,95534
2018-05-16T16:09:40.921Z,95536
2018-05-16T16:12:09.952Z,95518
2018-05-16T16:14:39.371Z,95539
2018-05-16T16:17:09.736Z,95530
2018-05-16T16:19:39.149Z,95540
2018-05-16T16:22:08.207Z,95523
2018-05-16T16:24:37.323Z,95528
2018-05-16T16:27:06.579Z,95519
2018-05-16T16:29:35.774Z,95516
2018-05-16T16:32:04.934Z,95515
2018-05-16T16:34:34.200Z,95513
2018-05-16T16:37:03.403Z,95512
2018-05-16T16:39:32.463Z,95511
2018-05-16T16:42:01.716Z,95512
2018-05-16T16:44:31.018Z,95513
2018-05-16T16:47:00.132Z,95515
2018-05-16T16:49:29.293Z,95504
2018-05-16T16:51:58.371Z,95491
2018-05-16T16:54:27.584Z,95532
2018-05-16T16:56:57.001Z,95495
2018-05-16T16:59:26.139Z,95505
2018-05-16T17:01:55.356Z,95507
2018-05-16T17:04:24.375Z,95517
2018-05-16T17:06:54.847Z,95502
2018-05-16T17:09:24.363Z,95322
2018-05-16T17:11:53.524Z,95504
2018-05-16T17:14:22.638Z,95510
2018-05-16T17:16:51.667Z,95511
2018-05-16T17:19:20.708Z,95510
2018-05-16T17:21:50.127Z,95512
2018-05-16T17:24:19.144Z,95510
2018-05-16T17:26:48.168Z,95507
2018-05-16T17:29:17.187Z,95515
2018-05-16T17:31:46.206Z,95505
2018-05-16T17:34:15.254Z,95508
2018-05-16T17:36:44.263Z,95511
2018-05-16T17:39:13.320Z,95502
2018-05-16T17:41:42.360Z,95506
2018-05-16T17:44:12.256Z,95508
2018-05-16T17:46:42.181Z,95507
2018-05-16T17:49:11.173Z,95506
2018-05-16T17:51:40.941Z,95510
2018-05-16T17:56:50.638Z,95514
2018-05-16T17:59:19.679Z,95501
2018-05-16T18:01:48.712Z,95503
2018-05-16T18:04:18.539Z,95501
2018-05-16T18:06:48.318Z,95495
2018-05-16T18:09:17.355Z,95500
2018-05-16T18:11:46.358Z,95502
2018-05-16T18:14:33.619Z,95500
2018-05-16T18:17:15.203Z,95512
2018-05-16T18:19:44.244Z,95502
2018-05-16T18:22:13.260Z,95508
2018-05-16T18:24:42.390Z,95521
2018-05-16T18:27:11.547Z,95539
2018-05-16T18:29:41.814Z,95528
2018-05-16T18:32:10.950Z,95539
2018-05-16T18:34:40.161Z,95542
2018-05-16T18:37:10.717Z,95535
2018-05-16T18:39:40.005Z,95536
2018-05-16T18:42:09.371Z,95539
2018-05-16T18:44:38.928Z,95539
2018-05-16T18:47:08.001Z,95540
2018-05-16T18:49:37.130Z,95545
2018-05-16T18:52:06.231Z,95553
2018-05-16T18:54:35.271Z,95546
2018-05-16T18:57:04.279Z,95546
2018-05-16T18:59:33.363Z,95557
2018-05-16T19:02:02.467Z,95557
2018-05-16T19:04:32.695Z,95555
2018-05-16T19:07:02.047Z,95552
2018-05-16T19:09:32.391Z,95563
2018-05-16T19:12:02.450Z,95569
2018-05-16T19:14:31.817Z,95564
2018-05-16T19:17:00.989Z,95571
2018-05-16T19:19:31.072Z,95569
2018-05-16T19:22:00.626Z,95575
2018-05-16T19:24:30.067Z,95568
2018-05-16T19:26:59.295Z,95575
2018-05-16T19:29:28.581Z,95572
2018-05-16T19:31:58.028Z,95576
2018-05-16T19:34:27.265Z,95577
2018-05-16T19:36:56.763Z,95578
2018-05-16T19:39:27.161Z,95575
2018-05-16T19:41:56.504Z,95582
2018-05-16T19:44:25.705Z,95577
2018-05-16T19:46:55.283Z,95585
2018-05-16T19:49:24.936Z,95581
2018-05-16T19:51:54.202Z,95577
2018-05-16T19:54:23.527Z,95579
2018-05-16T19:56:53.568Z,95571
2018-05-16T19:59:23.067Z,95578
2018-05-16T20:01:52.548Z,95580
2018-05-16T20:04:22.709Z,95585
2018-05-16T20:06:52.271Z,95598
2018-05-16T20:09:21.413Z,95603
2018-05-16T20:11:52.071Z,95592
2018-05-16T20:14:21.458Z,95601
2018-05-16T20:16:50.660Z,95594
2018-05-16T20:19:19.817Z,95603
2018-05-16T20:21:49.786Z,95604
2018-05-16T20:24:19.184Z,95599
2018-05-16T20:26:48.299Z,95611
2018-05-16T20:29:17.311Z,95619
2018-05-16T20:31:47.787Z,95614
2018-05-16T20:34:18.210Z,95616
2018-05-16T20:36:49.978Z,95612
2018-05-16T20:39:19.037Z,95627
2018-05-16T20:41:48.876Z,95607
2018-05-16T20:44:18.148Z,95611
2018-05-16T20:46:47.473Z,95620
2018-05-16T20:49:16.617Z,95616
2018-05-16T20:51:45.687Z,95612
2018-05-16T20:54:14.772Z,95617
2018-05-16T20:56:44.540Z,95620
2018-05-16T20:59:14.347Z,95625
2018-05-16T21:01:44.125Z,95623
2018-05-16T21:04:13.172Z,95625
2018-05-16T21:06:42.252Z,95625
2018-05-16T21:09:11.235Z,95625
2018-05-16T21:11:41.012Z,95631
2018-05-16T21:14:10.046Z,95633
2018-05-16T21:16:39.864Z,95624
2018-05-16T21:19:08.896Z,95622
2018-05-16T21:21:38.011Z,95623
2018-05-16T21:24:07.050Z,95636
2018-05-16T21:26:36.082Z,95625
2018-05-16T21:29:05.088Z,95622
2018-05-16T21:31:34.137Z,95624
2018-05-16T21:34:03.605Z,95633
2018-05-16T21:36:32.644Z,95629
2018-05-16T21:39:01.700Z,95630
2018-05-16T21:41:31.467Z,95633
2018-05-16T21:44:00.612Z,95641
2018-05-16T21:46:30.394Z,95637
2018-05-16T21:48:59.708Z,95634
2018-05-16T21:51:28.857Z,95626
2018-05-16T21:53:58.367Z,95619
2018-05-16T21:56:27.378Z,95628
2018-05-16T21:58:56.419Z,95623
